createdAt,value
2023-04-15T00:00:41.499Z,142.64
2023-04-15T00:01:41.558Z,143.86
2023-04-15T00:02:41.698Z,143.13
2023-04-15T00:03:41.730Z,144.92
2023-04-15T00:04:41.764Z,143.56
2023-04-15T00:05:41.674Z,142.83
2023-04-15T00:06:41.740Z,143.81
2023-04-15T00:07:41.794Z,144.68
2023-04-15T00:08:41.813Z,143.04
2023-04-15T00:09:41.834Z,143.19
2023-04-15T00:10:41.860Z,142.51
2023-04-15T00:11:41.894Z,143.46
2023-04-15T00:12:42.006Z,145.11
2023-04-15T00:13:41.975Z,144.27
2023-04-15T00:14:41.979Z,144.38
2023-04-15T00:15:41.982Z,143.44
2023-04-15T00:16:42.022Z,143.83
2023-04-15T00:17:42.025Z,143.54
2023-04-15T00:18:42.047Z,143.09
2023-04-15T00:19:42.064Z,142.81
2023-04-15T00:20:42.088Z,142.98
2023-04-15T00:21:42.158Z,140.73
2023-04-15T00:22:42.151Z,142.94
2023-04-15T00:23:42.181Z,141.88
2023-04-15T00:24:42.222Z,141.48
2023-04-15T00:25:42.256Z,141.76
2023-04-15T00:26:42.302Z,142.51
2023-04-15T00:27:42.329Z,141.52
2023-04-15T00:28:42.365Z,140.98
2023-04-15T00:29:42.416Z,139.75
2023-04-15T00:30:42.547Z,139.76
2023-04-15T00:31:42.544Z,141.08
2023-04-15T00:32:42.564Z,140.82
2023-04-15T00:33:43.201Z,140.54
2023-04-15T00:34:42.662Z,139.13
2023-04-15T00:35:42.632Z,138.94
2023-04-15T00:36:43.211Z,138.95
2023-04-15T00:37:44.151Z,139.63
2023-04-15T00:38:42.660Z,139.88
2023-04-15T00:39:42.646Z,138.83
2023-04-15T00:40:42.616Z,138.93
2023-04-15T00:41:42.580Z,138.79
2023-04-15T00:42:42.543Z,137.87
2023-04-15T00:43:42.562Z,136.97
2023-04-15T00:44:42.510Z,138.43
2023-04-15T00:45:42.576Z,140.68
2023-04-15T00:46:42.430Z,137.11
2023-04-15T00:47:42.457Z,138.35
2023-04-15T00:48:42.394Z,138.25
2023-04-15T00:49:42.357Z,137.52
2023-04-15T00:50:42.331Z,136.35
2023-04-15T00:51:42.314Z,136.27
2023-04-15T00:52:42.273Z,137.06
2023-04-15T00:53:42.253Z,137.05
2023-04-15T00:54:42.219Z,135.44
2023-04-15T00:55:42.193Z,136.36
2023-04-15T00:56:42.162Z,133.55
2023-04-15T00:57:42.138Z,135.51
2023-04-15T00:58:42.185Z,136.54
2023-04-15T00:59:42.087Z,135.86
2023-04-15T01:00:42.052Z,134.02
2023-04-15T01:01:42.049Z,135.74
2023-04-15T01:02:42.076Z,134.02
2023-04-15T01:03:42.136Z,135.99
2023-04-15T01:04:41.935Z,133.36
2023-04-15T01:05:41.910Z,134.94
2023-04-15T01:06:41.869Z,133.63
2023-04-15T01:07:41.844Z,134.06
2023-04-15T01:08:41.808Z,132.22
2023-04-15T01:09:41.792Z,134.01
2023-04-15T01:10:41.749Z,132.43
2023-04-15T01:11:41.733Z,131.95
2023-04-15T01:12:41.694Z,132.15
2023-04-15T01:13:41.665Z,130.27
2023-04-15T01:14:41.677Z,131.58
2023-04-15T01:15:41.757Z,129.79
2023-04-15T01:16:41.706Z,131.12
2023-04-15T01:17:41.805Z,131.20
2023-04-15T01:18:41.766Z,131.29
2023-04-15T01:19:41.794Z,129.76
2023-04-15T01:20:41.831Z,130.81
2023-04-15T01:21:41.883Z,130.87
2023-04-15T01:22:41.916Z,130.73
2023-04-15T01:23:41.938Z,131.62
2023-04-15T01:24:41.981Z,128.71
2023-04-15T01:25:42.030Z,129.30
2023-04-15T01:26:43.062Z,130.52
2023-04-15T01:27:42.096Z,130.97
2023-04-15T01:28:42.136Z,130.01
2023-04-15T01:29:42.174Z,127.99
2023-04-15T01:30:42.222Z,125.67
2023-04-15T01:31:42.270Z,125.69
2023-04-15T01:32:42.344Z,126.66
2023-04-15T01:33:42.335Z,127.27
2023-04-15T01:34:42.391Z,126.89
2023-04-15T01:35:42.413Z,126.85
2023-04-15T01:36:42.454Z,126.53
2023-04-15T01:37:42.490Z,126.97
2023-04-15T01:38:42.531Z,126.88
2023-04-15T01:39:42.573Z,125.98
2023-04-15T01:40:42.616Z,125.84
2023-04-15T01:41:42.638Z,124.86
2023-04-15T01:42:42.686Z,126.82
2023-04-15T01:43:43.701Z,126.42
2023-04-15T01:44:42.797Z,125.25
2023-04-15T01:45:42.743Z,125.64
2023-04-15T01:46:42.767Z,127.45
2023-04-15T01:47:42.797Z,126.88
2023-04-15T01:48:42.864Z,127.68
2023-04-15T01:49:42.817Z,126.60
2023-04-15T01:50:42.828Z,126.54
2023-04-15T01:51:42.864Z,126.26
2023-04-15T01:52:42.924Z,126.46
2023-04-15T01:53:42.929Z,123.80
2023-04-15T01:54:42.958Z,123.53
2023-04-15T01:55:43.000Z,122.90
2023-04-15T01:56:43.021Z,123.49
2023-04-15T01:57:43.041Z,124.46
2023-04-15T01:58:43.072Z,123.68
2023-04-15T01:59:43.074Z,122.94
2023-04-15T02:00:43.151Z,122.14
2023-04-15T02:01:43.102Z,122.59
2023-04-15T02:02:43.175Z,120.87
2023-04-15T02:03:43.233Z,122.64
2023-04-15T02:04:43.177Z,121.20
2023-04-15T02:05:43.213Z,120.47
2023-04-15T02:06:43.229Z,121.45
2023-04-15T02:07:43.352Z,122.05
2023-04-15T02:08:43.371Z,120.39
2023-04-15T02:09:43.335Z,119.54
2023-04-15T02:10:43.384Z,117.71
2023-04-15T02:11:43.382Z,120.16
2023-04-15T02:12:43.416Z,118.32
2023-04-15T02:13:43.525Z,119.34
2023-04-15T02:14:43.489Z,122.31
2023-04-15T02:15:43.517Z,117.92
2023-04-15T02:16:43.752Z,120.31
2023-04-15T02:17:43.636Z,118.46
2023-04-15T02:18:43.619Z,119.08
2023-04-15T02:19:43.650Z,119.15
2023-04-15T02:20:43.683Z,118.56
2023-04-15T02:21:43.713Z,119.20
2023-04-15T02:22:43.796Z,120.11
2023-04-15T02:23:43.770Z,117.17
2023-04-15T02:24:43.804Z,119.35
2023-04-15T02:25:53.886Z,118.64
2023-04-15T02:26:44.814Z,118.69
2023-04-15T02:27:43.774Z,118.82
2023-04-15T02:28:43.743Z,118.96
2023-04-15T02:29:43.713Z,120.33
2023-04-15T02:30:43.689Z,118.37
2023-04-15T02:31:43.761Z,119.22
2023-04-15T02:32:43.695Z,118.78
2023-04-15T02:33:43.583Z,116.02
2023-04-15T02:34:43.574Z,116.95
2023-04-15T02:35:43.593Z,118.81
2023-04-15T02:36:43.643Z,118.33
2023-04-15T02:37:44.073Z,116.13
2023-04-15T02:38:43.724Z,114.99
2023-04-15T02:39:43.760Z,119.55
2023-04-15T02:40:43.863Z,116.42
2023-04-15T02:41:43.901Z,115.54
2023-04-15T02:42:43.928Z,118.27
2023-04-15T02:43:43.894Z,116.29
2023-04-15T02:44:43.933Z,116.75
2023-04-15T02:45:43.999Z,117.82
2023-04-15T02:46:44.014Z,116.87
2023-04-15T02:47:44.090Z,116.38
2023-04-15T02:48:44.107Z,116.71
2023-04-15T02:49:44.154Z,115.63
2023-04-15T02:50:44.257Z,116.64
2023-04-15T02:51:44.227Z,116.54
2023-04-15T02:52:44.272Z,115.14
2023-04-15T02:53:45.201Z,115.10
2023-04-15T02:54:44.416Z,114.53
2023-04-15T02:55:44.393Z,116.29
2023-04-15T02:56:44.428Z,112.80
2023-04-15T02:57:44.467Z,114.23
2023-04-15T02:58:44.493Z,115.61
2023-04-15T02:59:44.528Z,113.16
2023-04-15T03:00:44.578Z,111.88
2023-04-15T03:01:44.638Z,114.38
2023-04-15T03:02:44.722Z,114.24
2023-04-15T03:03:44.734Z,111.75
2023-04-15T03:04:44.673Z,111.84
2023-04-15T03:05:44.679Z,114.15
2023-04-15T03:06:44.696Z,113.35
2023-04-15T03:07:44.724Z,111.71
2023-04-15T03:08:44.766Z,110.61
2023-04-15T03:09:44.856Z,109.16
2023-04-15T03:10:44.809Z,111.78
2023-04-15T03:11:44.854Z,110.33
2023-04-15T03:12:44.873Z,110.67
2023-04-15T03:13:44.917Z,110.77
2023-04-15T03:14:45.018Z,109.61
2023-04-15T03:15:44.999Z,110.43
2023-04-15T03:16:45.002Z,109.51
2023-04-15T03:17:45.038Z,109.90
2023-04-15T03:18:45.049Z,110.83
2023-04-15T03:19:45.092Z,110.53
2023-04-15T03:20:45.177Z,107.52
2023-04-15T03:21:45.158Z,109.86
2023-04-15T03:22:45.170Z,109.63
2023-04-15T03:23:45.208Z,109.89
2023-04-15T03:24:45.250Z,109.85
2023-04-15T03:25:45.267Z,111.57
2023-04-15T03:26:45.280Z,107.82
2023-04-15T03:27:45.313Z,110.32
2023-04-15T03:28:45.344Z,109.93
2023-04-15T03:29:45.392Z,108.88
2023-04-15T03:30:45.467Z,108.82
2023-04-15T03:31:46.199Z,107.94
2023-04-15T03:32:45.471Z,110.85
2023-04-15T03:33:45.553Z,109.46
2023-04-15T03:34:45.521Z,106.07
2023-04-15T03:35:45.522Z,107.98
2023-04-15T03:36:45.555Z,106.33
2023-04-15T03:37:45.565Z,110.12
2023-04-15T03:38:45.580Z,105.46
2023-04-15T03:39:45.563Z,105.64
2023-04-15T03:40:45.553Z,105.60
2023-04-15T03:41:45.531Z,105.75
2023-04-15T03:42:45.521Z,103.61
2023-04-15T03:43:45.525Z,101.36
2023-04-15T03:44:45.528Z,104.26
2023-04-15T03:45:45.533Z,104.04
2023-04-15T03:46:45.634Z,104.70
2023-04-15T03:47:45.616Z,104.47
2023-04-15T03:48:45.573Z,101.86
2023-04-15T03:49:45.540Z,102.53
2023-04-15T03:50:45.532Z,104.48
2023-04-15T03:51:45.533Z,106.13
2023-04-15T03:52:45.529Z,102.75
2023-04-15T03:53:45.554Z,102.49
2023-04-15T03:54:45.595Z,105.43
2023-04-15T03:55:45.620Z,101.89
2023-04-15T03:56:45.622Z,101.67
2023-04-15T03:57:45.646Z,103.48
2023-04-15T03:58:45.704Z,102.07
2023-04-15T03:59:45.639Z,100.93
2023-04-15T04:00:45.646Z,102.51
2023-04-15T04:01:46.277Z,100.06
2023-04-15T04:02:45.870Z,99.35
2023-04-15T04:03:45.810Z,99.66
2023-04-15T04:04:45.738Z,99.30
2023-04-15T04:05:45.753Z,100.81
2023-04-15T04:06:45.750Z,99.95
2023-04-15T04:07:45.757Z,98.27
2023-04-15T04:08:45.766Z,99.54
2023-04-15T04:09:47.331Z,96.74
2023-04-15T04:10:45.778Z,94.94
2023-04-15T04:11:45.774Z,100.32
2023-04-15T04:12:45.777Z,97.42
2023-04-15T04:13:45.780Z,98.59
2023-04-15T04:14:45.804Z,99.94
2023-04-15T04:15:45.826Z,98.70
2023-04-15T04:16:45.816Z,98.04
2023-04-15T04:17:45.914Z,95.14
2023-04-15T04:18:45.820Z,96.72
2023-04-15T04:19:45.838Z,99.58
2023-04-15T04:20:45.874Z,99.39
2023-04-15T04:21:45.911Z,95.68
2023-04-15T04:22:45.918Z,97.06
2023-04-15T04:23:45.942Z,95.70
2023-04-15T04:24:45.941Z,96.95
2023-04-15T04:25:45.965Z,97.74
2023-04-15T04:26:45.988Z,95.68
2023-04-15T04:27:46.013Z,95.88
2023-04-15T04:28:46.046Z,95.90
2023-04-15T04:29:46.204Z,95.52
2023-04-15T04:30:46.073Z,94.05
2023-04-15T04:31:46.201Z,95.71
2023-04-15T04:32:46.197Z,94.28
2023-04-15T04:33:46.119Z,95.55
2023-04-15T04:34:46.143Z,93.82
2023-04-15T04:35:46.142Z,93.18
2023-04-15T04:36:46.159Z,96.10
2023-04-15T04:37:46.184Z,91.86
2023-04-15T04:38:46.214Z,92.97
2023-04-15T04:39:46.243Z,94.10
2023-04-15T04:40:46.255Z,92.49
2023-04-15T04:41:46.279Z,91.57
2023-04-15T04:42:46.286Z,92.96
2023-04-15T04:43:46.280Z,93.89
2023-04-15T04:44:46.272Z,91.34
2023-04-15T04:45:46.324Z,92.06
2023-04-15T04:46:46.282Z,90.64
2023-04-15T04:47:46.366Z,92.43
2023-04-15T04:48:47.183Z,90.48
2023-04-15T04:49:46.376Z,90.00
2023-04-15T04:50:46.400Z,89.87
2023-04-15T04:51:46.415Z,89.33
2023-04-15T04:52:46.438Z,91.72
2023-04-15T04:53:46.490Z,91.25
2023-04-15T04:54:46.567Z,87.70
2023-04-15T04:55:46.487Z,87.48
2023-04-15T04:56:46.508Z,89.58
2023-04-15T04:57:46.499Z,88.29
2023-04-15T04:58:46.512Z,85.97
2023-04-15T04:59:46.522Z,86.20
2023-04-15T05:00:46.635Z,87.06
2023-04-15T05:01:46.621Z,83.38
2023-04-15T05:02:46.681Z,84.06
2023-04-15T05:03:46.696Z,86.76
2023-04-15T05:04:46.594Z,85.90
2023-04-15T05:05:47.270Z,82.39
2023-04-15T05:06:46.613Z,83.89
2023-04-15T05:07:46.605Z,82.54
2023-04-15T05:08:46.595Z,85.64
2023-04-15T05:09:46.641Z,83.12
2023-04-15T05:10:46.736Z,83.18
2023-04-15T05:11:46.671Z,81.60
2023-04-15T05:12:46.705Z,82.91
2023-04-15T05:13:46.737Z,79.44
2023-04-15T05:14:46.834Z,80.78
2023-04-15T05:15:47.790Z,83.53
2023-04-15T05:16:46.780Z,82.39
2023-04-15T05:17:46.905Z,79.46
2023-04-15T05:18:46.794Z,81.01
2023-04-15T05:19:46.823Z,81.05
2023-04-15T05:20:46.886Z,79.60
2023-04-15T05:21:46.808Z,81.41
2023-04-15T05:22:46.829Z,78.65
2023-04-15T05:23:46.796Z,79.56
2023-04-15T05:24:46.800Z,83.06
2023-04-15T05:25:46.790Z,78.81
2023-04-15T05:26:46.801Z,77.39
2023-04-15T05:27:46.786Z,78.48
2023-04-15T05:28:46.764Z,77.84
2023-04-15T05:29:46.751Z,76.52
2023-04-15T05:30:47.722Z,78.06
2023-04-15T05:31:46.742Z,78.44
2023-04-15T05:32:46.756Z,77.29
2023-04-15T05:33:46.757Z,76.81
2023-04-15T05:34:46.791Z,76.60
2023-04-15T05:35:46.806Z,78.74
2023-04-15T05:36:46.794Z,77.73
2023-04-15T05:37:46.796Z,77.87
2023-04-15T05:38:46.776Z,75.66
2023-04-15T05:39:47.746Z,78.32
2023-04-15T05:40:46.789Z,75.89
2023-04-15T05:41:46.810Z,76.01
2023-04-15T05:42:46.823Z,73.29
2023-04-15T05:43:46.820Z,74.14
2023-04-15T05:44:46.833Z,73.87
2023-04-15T05:45:46.929Z,74.14
2023-04-15T05:46:46.861Z,73.41
2023-04-15T05:47:46.901Z,74.04
2023-04-15T05:48:46.872Z,74.47
2023-04-15T05:49:46.907Z,74.16
2023-04-15T05:50:46.943Z,71.38
2023-04-15T05:51:47.000Z,71.89
2023-04-15T05:52:46.991Z,71.20
2023-04-15T05:53:46.981Z,72.62
2023-04-15T05:54:46.980Z,71.33
2023-04-15T05:55:47.750Z,70.01
2023-04-15T05:56:47.007Z,72.10
2023-04-15T05:57:47.034Z,71.53
2023-04-15T05:58:47.033Z,69.71
2023-04-15T05:59:47.017Z,69.05
2023-04-15T06:00:47.014Z,70.41
2023-04-15T06:01:47.093Z,70.57
2023-04-15T06:02:47.158Z,71.81
2023-04-15T06:03:47.392Z,71.56
2023-04-15T06:04:47.164Z,73.52
2023-04-15T06:05:47.110Z,71.94
2023-04-15T06:06:47.219Z,72.54
2023-04-15T06:07:48.589Z,71.61
2023-04-15T06:08:47.211Z,71.14
2023-04-15T06:09:47.241Z,74.14
2023-04-15T06:10:47.270Z,73.80
2023-04-15T06:11:47.303Z,73.28
2023-04-15T06:12:47.301Z,73.80
2023-04-15T06:13:47.290Z,74.08
2023-04-15T06:14:47.328Z,75.27
2023-04-15T06:15:47.318Z,74.65
2023-04-15T06:16:47.362Z,74.19
2023-04-15T06:17:47.412Z,74.95
2023-04-15T06:18:47.950Z,76.28
2023-04-15T06:19:47.399Z,76.63
2023-04-15T06:20:47.396Z,75.77
2023-04-15T06:21:47.404Z,76.69
2023-04-15T06:22:47.432Z,76.45
2023-04-15T06:23:47.467Z,75.88
2023-04-15T06:24:47.482Z,76.93
2023-04-15T06:25:47.523Z,77.04
2023-04-15T06:26:47.504Z,76.61
2023-04-15T06:27:47.507Z,77.36
2023-04-15T06:28:47.543Z,75.83
2023-04-15T06:29:47.562Z,76.98
2023-04-15T06:30:47.569Z,77.52
2023-04-15T06:31:47.643Z,76.36
2023-04-15T06:32:47.625Z,80.61
2023-04-15T06:33:47.614Z,81.12
2023-04-15T06:34:47.645Z,80.59
2023-04-15T06:35:47.695Z,78.89
2023-04-15T06:36:47.687Z,81.41
2023-04-15T06:37:48.758Z,81.46
2023-04-15T06:38:47.719Z,81.80
2023-04-15T06:39:47.765Z,79.92
2023-04-15T06:40:47.797Z,84.62
2023-04-15T06:41:47.817Z,85.17
2023-04-15T06:42:47.826Z,84.73
2023-04-15T06:43:47.816Z,85.61
2023-04-15T06:44:47.833Z,85.07
2023-04-15T06:45:47.884Z,83.47
2023-04-15T06:46:47.852Z,84.47
2023-04-15T06:47:47.897Z,88.48
2023-04-15T06:48:47.866Z,83.77
2023-04-15T06:49:47.859Z,87.15
2023-04-15T06:50:47.925Z,86.27
2023-04-15T06:51:47.852Z,82.67
2023-04-15T06:52:47.819Z,85.11
2023-04-15T06:53:47.783Z,84.63
2023-04-15T06:54:47.788Z,85.52
2023-04-15T06:55:47.761Z,85.57
2023-04-15T06:56:47.751Z,86.13
2023-04-15T06:57:47.715Z,90.05
2023-04-15T06:58:47.701Z,87.27
2023-04-15T06:59:47.779Z,86.77
2023-04-15T07:00:47.742Z,88.75
2023-04-15T07:01:47.866Z,87.53
2023-04-15T07:02:47.840Z,89.49
2023-04-15T07:03:47.722Z,91.22
2023-04-15T07:04:47.690Z,89.14
2023-04-15T07:05:47.675Z,89.83
2023-04-15T07:06:47.635Z,91.65
2023-04-15T07:07:47.654Z,89.24
2023-04-15T07:08:47.628Z,93.45
2023-04-15T07:09:47.617Z,92.31
2023-04-15T07:10:47.594Z,91.99
2023-04-15T07:11:47.584Z,93.83
2023-04-15T07:12:47.562Z,93.69
2023-04-15T07:13:47.535Z,95.40
2023-04-15T07:14:47.511Z,94.87
2023-04-15T07:15:47.477Z,94.33
2023-04-15T07:16:47.486Z,97.80
2023-04-15T07:17:47.436Z,97.00
2023-04-15T07:18:47.416Z,97.04
2023-04-15T07:19:47.496Z,98.48
2023-04-15T07:20:47.368Z,98.01
2023-04-15T07:21:47.360Z,98.58
2023-04-15T07:22:47.426Z,99.98
2023-04-15T07:23:48.203Z,101.98
2023-04-15T07:24:47.304Z,102.80
2023-04-15T07:25:47.283Z,99.01
2023-04-15T07:26:47.393Z,100.22
2023-04-15T07:27:47.301Z,101.76
2023-04-15T07:28:47.300Z,103.30
2023-04-15T07:29:47.297Z,103.63
2023-04-15T07:30:47.281Z,102.62
2023-04-15T07:31:47.244Z,103.65
2023-04-15T07:32:47.257Z,103.97
2023-04-15T07:33:47.189Z,106.61
2023-04-15T07:34:47.194Z,104.85
2023-04-15T07:35:47.169Z,108.02
2023-04-15T07:36:47.229Z,104.69
2023-04-15T07:37:47.118Z,107.99
2023-04-15T07:38:47.097Z,107.09
2023-04-15T07:39:47.077Z,107.39
2023-04-15T07:40:47.048Z,106.29
2023-04-15T07:41:47.025Z,108.39
2023-04-15T07:42:47.024Z,109.64
2023-04-15T07:43:47.031Z,106.75
2023-04-15T07:44:47.029Z,107.89
2023-04-15T07:45:47.034Z,108.70
2023-04-15T07:46:47.030Z,109.41
2023-04-15T07:47:47.125Z,108.35
2023-04-15T07:48:47.016Z,110.99
2023-04-15T07:49:46.986Z,110.69
2023-04-15T07:50:46.975Z,111.70
2023-04-15T07:51:46.970Z,112.89
2023-04-15T07:52:46.966Z,113.03
2023-04-15T07:53:46.912Z,110.53
2023-04-15T07:54:46.902Z,110.99
2023-04-15T07:55:46.899Z,111.33
2023-04-15T07:56:46.908Z,113.79
2023-04-15T07:57:46.899Z,109.36
2023-04-15T07:58:46.894Z,111.83
2023-04-15T07:59:46.893Z,114.57
2023-04-15T08:00:46.888Z,111.97
2023-04-15T08:01:46.879Z,111.15
2023-04-15T08:02:47.196Z,113.18
2023-04-15T08:03:47.001Z,112.05
2023-04-15T08:04:46.989Z,112.32
2023-04-15T08:05:46.834Z,110.90
2023-04-15T08:06:46.814Z,114.24
2023-04-15T08:07:46.828Z,112.62
2023-04-15T08:08:46.849Z,112.39
2023-04-15T08:09:46.835Z,113.49
2023-04-15T08:10:46.827Z,111.79
2023-04-15T08:11:46.809Z,116.16
2023-04-15T08:12:46.821Z,112.51
2023-04-15T08:13:46.899Z,114.38
2023-04-15T08:14:46.937Z,114.45
2023-04-15T08:15:46.937Z,113.10
2023-04-15T08:16:46.963Z,114.88
2023-04-15T08:17:47.023Z,115.05
2023-04-15T08:18:47.023Z,113.36
2023-04-15T08:19:47.004Z,113.93
2023-04-15T08:20:47.009Z,113.04
2023-04-15T08:21:46.987Z,111.90
2023-04-15T08:22:46.981Z,113.20
2023-04-15T08:23:46.952Z,112.82
2023-04-15T08:24:46.926Z,112.03
2023-04-15T08:25:46.941Z,112.60
2023-04-15T08:26:46.964Z,113.99
2023-04-15T08:27:46.959Z,113.43
2023-04-15T08:28:46.939Z,111.16
2023-04-15T08:29:46.938Z,115.04
2023-04-15T08:30:46.912Z,113.18
2023-04-15T08:31:46.924Z,113.33
2023-04-15T08:32:46.971Z,114.56
2023-04-15T08:33:46.878Z,115.33
2023-04-15T08:34:46.851Z,110.69
2023-04-15T08:35:46.854Z,117.00
2023-04-15T08:36:46.828Z,114.26
2023-04-15T08:37:46.818Z,117.15
2023-04-15T08:38:46.786Z,114.30
2023-04-15T08:39:46.763Z,113.46
2023-04-15T08:40:46.761Z,111.62
2023-04-15T08:41:46.721Z,112.55
2023-04-15T08:42:46.694Z,112.98
2023-04-15T08:43:46.680Z,112.45
2023-04-15T08:44:46.667Z,111.67
2023-04-15T08:45:46.637Z,113.83
2023-04-15T08:46:46.690Z,111.12
2023-04-15T08:47:46.664Z,111.37
2023-04-15T08:48:46.662Z,114.13
2023-04-15T08:49:46.622Z,114.68
2023-04-15T08:50:46.598Z,114.27
2023-04-15T08:51:46.580Z,115.16
2023-04-15T08:52:46.588Z,114.73
2023-04-15T08:53:46.571Z,111.03
2023-04-15T08:54:46.512Z,112.75
2023-04-15T08:55:46.491Z,113.91
2023-04-15T08:56:46.517Z,113.30
2023-04-15T08:57:46.479Z,113.54
2023-04-15T08:58:46.483Z,113.18
2023-04-15T08:59:46.489Z,117.65
2023-04-15T09:00:46.506Z,114.51
2023-04-15T09:01:46.509Z,112.55
2023-04-15T09:02:46.616Z,113.85
2023-04-15T09:03:46.506Z,115.69
2023-04-15T09:04:47.180Z,111.18
2023-04-15T09:05:46.509Z,114.85
2023-04-15T09:06:46.435Z,115.99
2023-04-15T09:07:46.507Z,110.74
2023-04-15T09:08:46.450Z,115.02
2023-04-15T09:09:46.448Z,115.44
2023-04-15T09:10:46.450Z,112.47
2023-04-15T09:11:46.409Z,111.75
2023-04-15T09:12:46.387Z,114.47
2023-04-15T09:13:46.375Z,114.96
2023-04-15T09:14:46.366Z,114.59
2023-04-15T09:15:46.366Z,113.76
2023-04-15T09:16:48.127Z,114.58
2023-04-15T09:17:46.446Z,115.41
2023-04-15T09:18:46.318Z,115.26
2023-04-15T09:19:46.253Z,111.57
2023-04-15T09:20:46.239Z,112.35
2023-04-15T09:21:46.187Z,112.50
2023-04-15T09:22:46.228Z,110.74
2023-04-15T09:23:46.130Z,114.17
2023-04-15T09:24:46.103Z,115.11
2023-04-15T09:25:46.072Z,111.94
2023-04-15T09:26:46.044Z,116.72
2023-04-15T09:27:46.019Z,113.06
2023-04-15T09:28:45.989Z,117.46
2023-04-15T09:29:45.966Z,114.87
2023-04-15T09:30:45.961Z,116.84
2023-04-15T09:31:45.958Z,114.50
2023-04-15T09:32:45.924Z,115.28
2023-04-15T09:33:45.853Z,114.90
2023-04-15T09:34:45.831Z,113.94
2023-04-15T09:35:45.812Z,114.80
2023-04-15T09:36:45.767Z,115.84
2023-04-15T09:37:46.737Z,112.89
2023-04-15T09:38:45.716Z,115.08
2023-04-15T09:39:45.689Z,115.19
2023-04-15T09:40:45.653Z,114.70
2023-04-15T09:41:45.635Z,115.17
2023-04-15T09:42:45.603Z,112.95
2023-04-15T09:43:45.570Z,115.23
2023-04-15T09:44:45.556Z,114.97
2023-04-15T09:45:45.549Z,112.89
2023-04-15T09:46:45.506Z,113.62
2023-04-15T09:47:45.521Z,116.23
2023-04-15T09:48:45.453Z,115.91
2023-04-15T09:49:45.524Z,116.10
2023-04-15T09:50:45.407Z,115.70
2023-04-15T09:51:57.642Z,119.18
2023-04-15T09:52:46.342Z,119.20
2023-04-15T09:53:45.314Z,115.77
2023-04-15T09:54:45.287Z,116.69
2023-04-15T09:55:45.256Z,118.35
2023-04-15T09:56:46.176Z,116.88
2023-04-15T09:57:45.198Z,116.90
2023-04-15T09:58:45.173Z,115.41
2023-04-15T09:59:45.149Z,113.57
2023-04-15T10:00:45.109Z,115.01
2023-04-15T10:01:45.194Z,114.58
2023-04-15T10:02:45.209Z,115.90
2023-04-15T10:03:45.204Z,114.54
2023-04-15T10:04:45.161Z,113.61
2023-04-15T10:05:45.193Z,114.67
2023-04-15T10:06:45.266Z,110.85
2023-04-15T10:07:45.253Z,111.41
2023-04-15T10:08:45.316Z,114.80
2023-04-15T10:09:45.320Z,114.66
2023-04-15T10:10:45.339Z,110.45
2023-04-15T10:11:45.357Z,112.95
2023-04-15T10:12:45.379Z,113.64
2023-04-15T10:13:45.414Z,111.40
2023-04-15T10:14:45.437Z,112.26
2023-04-15T10:15:45.504Z,112.04
2023-04-15T10:16:45.517Z,111.35
2023-04-15T10:17:45.601Z,111.73
2023-04-15T10:18:45.613Z,110.27
2023-04-15T10:19:45.602Z,111.26
2023-04-15T10:20:45.643Z,112.66
2023-04-15T10:21:45.675Z,116.01
2023-04-15T10:22:45.711Z,111.56
2023-04-15T10:23:45.737Z,111.17
2023-04-15T10:24:45.748Z,111.86
2023-04-15T10:25:45.799Z,111.01
2023-04-15T10:26:45.811Z,112.27
2023-04-15T10:27:45.852Z,113.87
2023-04-15T10:28:45.864Z,112.04
2023-04-15T10:29:45.893Z,111.22
2023-04-15T10:30:45.917Z,112.00
2023-04-15T10:31:46.034Z,107.72
2023-04-15T10:32:46.007Z,114.62
2023-04-15T10:33:46.038Z,111.65
2023-04-15T10:34:46.054Z,113.96
2023-04-15T10:35:46.101Z,109.78
2023-04-15T10:36:46.129Z,111.22
2023-04-15T10:37:46.161Z,111.95
2023-04-15T10:38:46.201Z,112.40
2023-04-15T10:39:46.251Z,110.38
2023-04-15T10:40:46.285Z,113.72
2023-04-15T10:41:46.301Z,113.14
2023-04-15T10:42:46.411Z,112.11
2023-04-15T10:43:46.380Z,112.46
2023-04-15T10:44:46.409Z,112.86
2023-04-15T10:45:46.493Z,113.62
2023-04-15T10:46:46.553Z,113.39
2023-04-15T10:47:46.594Z,112.82
2023-04-15T10:48:46.658Z,109.75
2023-04-15T10:49:46.597Z,115.09
2023-04-15T10:50:46.659Z,110.69
2023-04-15T10:51:46.680Z,114.18
2023-04-15T10:52:46.729Z,111.64
2023-04-15T10:53:46.757Z,112.96
2023-04-15T10:54:46.791Z,113.21
2023-04-15T10:55:46.827Z,112.98
2023-04-15T10:56:46.884Z,117.65
2023-04-15T10:57:46.903Z,114.23
2023-04-15T10:58:46.940Z,112.76
2023-04-15T10:59:46.976Z,113.90
2023-04-15T11:00:47.012Z,113.01
2023-04-15T11:01:47.103Z,113.42
2023-04-15T11:02:47.151Z,114.01
2023-04-15T11:03:47.344Z,112.58
2023-04-15T11:04:47.176Z,113.51
2023-04-15T11:05:47.186Z,116.42
2023-04-15T11:06:47.226Z,111.00
2023-04-15T11:07:47.267Z,111.25
2023-04-15T11:08:47.309Z,114.67
2023-04-15T11:09:47.347Z,113.25
2023-04-15T11:10:47.386Z,112.23
2023-04-15T11:11:47.425Z,113.79
2023-04-15T11:12:47.462Z,113.04
2023-04-15T11:13:47.501Z,111.47
2023-04-15T11:14:47.545Z,110.12
2023-04-15T11:15:47.576Z,111.31
2023-04-15T11:16:47.669Z,114.32
2023-04-15T11:17:47.714Z,111.90
2023-04-15T11:18:47.743Z,108.53
2023-04-15T11:19:47.747Z,112.63
2023-04-15T11:20:47.795Z,111.25
2023-04-15T11:21:47.840Z,113.98
2023-04-15T11:22:47.870Z,110.52
2023-04-15T11:23:47.931Z,112.81
2023-04-15T11:24:47.962Z,111.42
2023-04-15T11:25:48.011Z,110.63
2023-04-15T11:26:48.058Z,110.33
2023-04-15T11:27:48.096Z,111.02
2023-04-15T11:28:48.168Z,111.25
2023-04-15T11:29:48.214Z,111.44
2023-04-15T11:30:48.207Z,108.31
2023-04-15T11:31:48.263Z,110.92
2023-04-15T11:32:48.286Z,110.19
2023-04-15T11:33:48.298Z,108.05
2023-04-15T11:34:48.327Z,109.79
2023-04-15T11:35:48.356Z,109.94
2023-04-15T11:36:48.388Z,110.45
2023-04-15T11:37:48.422Z,110.75
2023-04-15T11:38:48.470Z,107.81
2023-04-15T11:39:48.504Z,107.35
2023-04-15T11:40:48.535Z,107.91
2023-04-15T11:41:48.589Z,107.24
2023-04-15T11:42:50.026Z,108.61
2023-04-15T11:43:49.676Z,108.09
2023-04-15T11:44:48.730Z,105.46
2023-04-15T11:45:48.829Z,110.71
2023-04-15T11:46:48.801Z,107.33
2023-04-15T11:47:48.900Z,104.86
2023-04-15T11:48:48.895Z,102.54
2023-04-15T11:49:48.914Z,106.72
2023-04-15T11:50:48.960Z,106.73
2023-04-15T11:51:48.994Z,107.71
2023-04-15T11:52:49.094Z,107.50
2023-04-15T11:53:49.046Z,104.49
2023-04-15T11:54:49.061Z,107.01
2023-04-15T11:55:49.047Z,104.94
2023-04-15T11:56:49.111Z,103.47
2023-04-15T11:57:49.073Z,105.15
2023-04-15T11:58:49.674Z,104.25
2023-04-15T11:59:49.125Z,105.92
2023-04-15T12:00:49.152Z,104.39
2023-04-15T12:01:49.186Z,105.87
2023-04-15T12:02:49.274Z,105.44
2023-04-15T12:03:49.429Z,105.51
2023-04-15T12:04:49.355Z,106.04
2023-04-15T12:05:49.230Z,106.16
2023-04-15T12:06:49.251Z,103.91
2023-04-15T12:07:49.260Z,104.82
2023-04-15T12:08:49.282Z,102.34
2023-04-15T12:09:49.236Z,103.61
2023-04-15T12:10:49.250Z,103.06
2023-04-15T12:11:49.238Z,104.22
2023-04-15T12:12:49.244Z,104.17
2023-04-15T12:13:49.263Z,102.01
2023-04-15T12:14:49.274Z,104.54
2023-04-15T12:15:49.308Z,102.58
2023-04-15T12:16:50.024Z,101.98
2023-04-15T12:17:50.898Z,102.42
2023-04-15T12:18:49.330Z,102.81
2023-04-15T12:19:49.304Z,104.40
2023-04-15T12:20:49.377Z,100.72
2023-04-15T12:21:49.266Z,104.14
2023-04-15T12:22:49.228Z,100.57
2023-04-15T12:23:49.177Z,101.69
2023-04-15T12:24:49.151Z,101.19
2023-04-15T12:25:49.125Z,101.25
2023-04-15T12:26:49.094Z,100.78
2023-04-15T12:27:49.062Z,99.43
2023-04-15T12:28:49.029Z,100.11
2023-04-15T12:29:49.000Z,103.70
2023-04-15T12:30:48.968Z,101.53
2023-04-15T12:31:48.937Z,99.80
2023-04-15T12:32:48.935Z,99.15
2023-04-15T12:33:48.877Z,102.04
2023-04-15T12:34:48.846Z,104.51